Terminal Aerodrome Forecast
Issued by NWS

Home | Current Version | Previous Version | Text Only | Print | Product List | Glossary On
Versions: 1 2 3 4 5 6 7 8 9 10 11 12 13 14 15
918
FTUS43 KMPX 111739
TAFRNH
TAF
KRNH 111739Z 1118/1218 VRB03KT P6SM SCT070
     FM112000 21005KT P6SM OVC050
     FM120200 28005KT P6SM SCT025 OVC040
     FM120700 30007KT P6SM BKN050
     FM121200 32011G19KT P6SM SKC=

USA.gov is the U.S. government's official web portal to all federal, state and local government web resources and services.